Latest Coastal Weather Observations for Cape Grim

IDV60701

Issued at 7:32 pm EDT Tuesday 12 December 2017 (issued every 10 minutes, with the page automatically refreshed every 10 minutes)

About coastal observations | Map of coastal stations | Coastal observations for VIC | Marine services | Other Formats
Station Details ID: 091331 Name: CAPE GRIM Lat: -40.68 Lon: 144.69 Height: 86.0 m
Data from the previous 72 hours. | See also: Recent months at Cape Grim
Date/Time
EDT
Temp
°C
Wind Pressure Rain since
9am
mm
Weather Cloud Vis
km
Sea
Height
m
Swell
Dir  Spd
kts
Gust
kts
hPa Trend Height
m
Period
s
Dir
12/07:30pm 15.4 SW 14 18 1014.8 - 0.0 - Clear - - - - -
12/07:00pm 15.3 SW 15 18 1014.6 - 0.0 - - - - - - -
12/06:30pm 15.2 SW 16 18 1014.7 - 0.0 - - - - - - -
12/06:00pm 16.7 SW 13 16 1014.8 - 0.0 - - - - - - -
12/05:30pm 16.3 SW 18 23 1015.1 - 0.0 - - - - - - -
12/05:00pm 16.6 SW 19 23 1015.6 - 0.0 - - - - - - -
12/04:30pm 16.6 SW 18 22 1015.9 - 0.0 - - - - - - -
12/04:00pm 16.8 SW 18 23 1016.1 - 0.0 - - - - - - -
12/03:30pm 16.7 SW 20 23 1016.3 - 0.0 - - - - - - -
12/03:00pm 17.4 SW 19 23 1016.7 - 0.0 - - - - - - -
12/02:30pm 16.8 SW 19 22 1016.9 - 0.0 - - - - - - -
12/02:00pm 17.0 SW 19 22 1017.1 - 0.0 - - - - - - -
12/01:30pm 17.2 SW 19 23 1017.2 - 0.0 - - - - - - -
12/01:00pm 16.7 SW 18 21 1017.2 - 0.0 - - - - - - -
12/12:30pm 17.0 SW 17 21 1017.7 - 0.0 - - - - - - -
12/12:00pm 16.1 SW 17 21 1017.6 - 0.0 - - - - - - -
12/11:30am 16.7 SW 17 20 1017.5 - 0.0 - - - - - - -
12/11:00am 15.9 SW 15 19 1017.7 - 0.0 - - - - - - -
12/10:30am 16.6 SW 17 22 1017.9 - 0.0 - - - - - - -
12/10:00am 16.3 SW 17 21 1018.0 - 0.0 - - - - - - -
12/09:30am 16.1 SW 15 19 1017.9 - 0.0 - - - - - - -
12/09:00am 15.5 SW 15 20 1017.8 - 0.0 - - - - - - -
12/08:30am 15.3 SW 16 21 1017.8 - 0.0 - - - - - - -
12/08:00am 15.2 SW 14 19 1017.5 - 0.0 - - - - - - -
12/07:30am 15.0 SW 15 19 1017.3 - 0.0 - - - - - - -
12/07:00am 14.7 SW 14 18 1017.3 - 0.0 - Partly cloudy - - - - -
12/06:30am 14.4 SW 16 21 1017.3 - 0.0 - Cloudy - - - - -
12/06:00am 14.2 SW 15 20 1017.4 - 0.0 - Mostly cloudy - - - - -
12/05:30am 14.4 SW 15 20 1017.3 - 0.0 - Cloudy - - - - -
12/05:00am 14.4 SW 16 19 1017.3 - 0.0 - Partly cloudy - - - - -
12/04:30am 14.1 SW 15 20 1017.2 - 0.0 - Partly cloudy - - - - -
12/04:00am 14.2 SW 18 25 1017.3 - 0.0 - Partly cloudy - - - - -
12/03:30am 14.0 SW 19 24 1017.5 - 0.0 - Partly cloudy - - - - -
12/03:00am 14.2 SW 16 21 1017.9 - 0.0 - Mostly cloudy - - - - -
12/02:30am 14.4 SW 16 22 1018.2 - 0.0 - Partly cloudy - - - - -
12/02:00am 14.2 SW 19 24 1018.5 - 0.0 - - - - - - -
12/01:30am 14.2 SW 19 23 1018.8 - 0.0 - Partly cloudy - - - - -
12/01:00am 14.3 SW 19 24 1018.9 - 0.0 - Partly cloudy - - - - -
12/12:30am 14.3 SW 19 23 1019.0 - 0.0 - Partly cloudy - - - - -
12/12:00am 14.5 SW 21 26 1019.3 - 0.0 - Mostly cloudy - - - - -
 
Date/Time
EDT
Temp
°C
Wind Pressure Rain since
9am
mm
Weather Cloud Vis
km
Sea
Height
m
Swell
Dir  Spd
kts
Gust
kts
hPa Trend Height
m
Period
s
Dir
11/11:30pm 14.9 SW 21 24 1019.4 - 0.0 - Partly cloudy - - - - -
11/11:00pm 14.8 SW 19 24 1019.4 - 0.0 - Partly cloudy - - - - -
11/10:30pm 15.1 SW 20 25 1019.8 - 0.0 - Partly cloudy - - - - -
11/10:00pm 14.8 SW 19 24 1019.7 - 0.0 - Partly cloudy - - - - -
11/09:30pm 15.0 SW 20 24 1019.5 - 0.0 - Partly cloudy - - - - -
11/09:00pm 14.9 SW 17 25 1019.6 - 0.0 - Mostly cloudy - - - - -
11/08:30pm 15.1 SW 21 26 1019.5 - 0.0 - Cloudy - - - - -
11/08:00pm 15.0 SW 22 27 1019.4 - 0.0 - Partly cloudy - - - - -
11/07:30pm 15.4 SW 20 27 1019.3 - 0.0 - Partly cloudy - - - - -
11/07:01pm 15.4 SW 19 29 1019.4 - 0.0 - Partly cloudy - - - - -
11/07:00pm 15.4 SW 20 29 1019.4 - 0.0 - Partly cloudy - - - - -
11/06:56pm 15.3 SW 19 29 1019.4 - 0.0 - Partly cloudy - - - - -
11/06:30pm 15.4 SW 20 24 1019.5 - 0.0 - Partly cloudy - - - - -
11/06:00pm 16.3 SW 22 27 1019.4 - 0.0 - Partly cloudy - - - - -
11/05:30pm 16.6 SW 21 25 1019.5 - 0.0 - Partly cloudy - - - - -
11/05:00pm 16.5 SW 19 25 1019.6 - 0.0 - Cloudy - - - - -
11/04:30pm 15.7 SW 20 26 1019.7 - 0.0 - Partly cloudy - - - - -
11/04:00pm 15.9 SW 14 22 1019.8 - 0.0 - Partly cloudy - - - - -
11/03:30pm 16.3 SW 13 18 1019.8 - 0.0 - Partly cloudy - - - - -
11/03:00pm 16.0 SW 17 22 1020.0 - 0.0 - Cloudy - - - - -
11/02:30pm 16.7 SW 16 20 1020.0 - 0.0 - Partly cloudy - - - - -
11/02:00pm 16.2 SW 16 24 1020.0 - 0.0 - Partly cloudy - - - - -
11/01:30pm 16.2 SW 15 19 1020.2 - 0.0 - Partly cloudy - - - - -
11/01:00pm 15.9 SW 17 21 1020.3 - 0.0 - Partly cloudy - - - - -
11/12:30pm 16.5 SW 17 21 1020.6 - 0.0 - Partly cloudy - - - - -
11/12:00pm 15.2 SW 14 19 1020.7 - 0.0 - Cloudy - - - - -
11/11:30am 16.1 SW 14 19 1020.7 - 0.0 - Partly cloudy - - - - -
11/11:00am 15.3 SW 17 22 1020.8 - 0.0 - Partly cloudy - - - - -
11/10:30am 13.9 SW 17 22 1020.9 - 0.0 - Partly cloudy - - - - -
11/10:00am 15.1 SW 15 19 1020.8 - 0.0 - Partly cloudy - - - - -
11/09:30am 14.6 SW 12 23 1020.9 - 0.0 - Partly cloudy - - - - -
11/09:00am 14.0 WSW 9 16 1020.7 - 0.8 - Cloudy - - - - -
11/08:58am 13.5 W 9 16 1020.7 - 0.8 - Partly cloudy - - - - -
11/08:38am 13.4 WSW 12 24 1020.6 - 0.8 - Partly cloudy - - - - -
11/08:30am 13.8 SW 13 24 1020.4 - 0.8 - Partly cloudy - - - - -
11/08:17am 14.4 SW 15 19 1020.5 - 0.8 - Partly cloudy - - - - -
11/08:00am 13.7 SW 15 22 1020.5 - 0.8 - Partly cloudy - - - - -
11/07:41am 13.6 SW 15 19 1020.3 - 0.8 - Partly cloudy - - - - -
11/07:33am 13.5 SW 13 18 1020.2 - 0.8 - Partly cloudy - - - - -
11/07:30am 13.3 SW 13 17 1020.2 - 0.8 - Partly cloudy - - - - -
11/07:13am 13.3 SW 15 23 1020.1 - 0.8 - Partly cloudy - - - - -
11/07:00am 13.9 SW 14 18 1020.0 - 0.8 - Partly cloudy - - - - -
11/06:30am 13.6 SW 11 15 1019.8 - 0.8 - - - - - - -
11/06:21am 13.5 SW 13 19 1019.8 - 0.8 - Partly cloudy - - - - -
11/06:00am 12.7 WSW 11 21 1019.7 - 0.8 Rain Cloudy - - - - -
11/05:48am 13.2 WSW 12 27 1019.8 - 0.6 - Partly cloudy - - - - -
11/05:44am 13.6 W 9 16 1019.6 - 0.6 - Partly cloudy - - - - -
11/05:30am 13.1 WSW 9 16 1019.6 - 0.6 - Partly cloudy - - - - -
11/05:00am 13.7 W 11 21 1019.6 - 0.6 - Partly cloudy - - - - -
11/04:30am 13.8 SW 12 16 1019.5 - 0.6 - Partly cloudy - - - - -
11/04:00am 13.4 WSW 9 17 1019.4 - 0.6 - Partly cloudy - - - - -
11/03:30am 13.6 WSW 9 14 1019.5 - 0.6 - Cloudy - - - - -
11/03:02am 13.0 SW 15 18 1019.8 - 0.4 - Partly cloudy - - - - -
11/03:00am 13.1 SW 15 18 1019.8 - 0.4 - Partly cloudy - - - - -
11/02:40am 13.6 WSW 10 18 1020.0 - 0.4 - Partly cloudy - - - - -
11/02:30am 13.7 WSW 11 18 1020.1 - 0.4 - Partly cloudy - - - - -
11/02:00am 13.5 SW 15 19 1020.2 - 0.4 - Partly cloudy - - - - -
11/01:51am 13.4 SW 15 20 1020.2 - 0.4 - Partly cloudy - - - - -
11/01:30am 13.4 WSW 12 21 1020.3 - 0.4 - Partly cloudy - - - - -
11/01:14am 13.9 W 10 19 1020.3 - 0.4 - Partly cloudy - - - - -
11/01:00am 13.7 W 10 15 1020.4 - 0.4 - Partly cloudy - - - - -
11/12:53am 13.7 W 10 16 1020.4 - 0.4 - Partly cloudy - - - - -
11/12:43am 13.7 SW 11 16 1020.6 - 0.4 - Partly cloudy - - - - -
11/12:37am 13.6 SW 12 15 1020.8 - 0.4 - Partly cloudy - - - - -
11/12:30am 13.5 SW 13 19 1020.9 - 0.4 - Partly cloudy - - - - -
11/12:09am 14.0 W 10 18 1021.0 - 0.2 - Partly cloudy - - - - -
11/12:03am 13.9 WSW 9 17 1021.1 - 0.2 - Partly cloudy - - - - -
11/12:00am 13.8 WSW 9 17 1021.1 - 0.2 - Cloudy - - - - -
 
Date/Time
EDT
Temp
°C
Wind Pressure Rain since
9am
mm
Weather Cloud Vis
km
Sea
Height
m
Swell
Dir  Spd
kts
Gust
kts
hPa Trend Height
m
Period
s
Dir
10/11:50pm 13.8 WSW 10 19 1021.1 - 0.2 - Partly cloudy - - - - -
10/11:43pm 13.8 SW 12 19 1021.2 - 0.2 - Partly cloudy - - - - -
10/11:30pm 13.9 SW 12 17 1021.2 - 0.2 - Partly cloudy - - - - -
10/11:12pm 13.6 SW 10 18 1021.3 - 0.2 - Partly cloudy - - - - -
10/11:00pm 13.7 SW 15 22 1021.3 - 0.2 - Partly cloudy - - - - -
10/10:30pm 14.3 W 10 16 1021.3 - 0.2 - Cloudy - - - - -
10/10:00pm 14.1 WSW 12 18 1021.3 - 0.2 - Partly cloudy - - - - -
10/09:52pm 13.8 SW 16 21 1021.3 - 0.2 - Partly cloudy - - - - -
10/09:34pm 13.5 W 13 20 1021.3 - 0.2 - Partly cloudy - - - - -
10/09:30pm 13.5 W 13 20 1021.2 - 0.2 - Partly cloudy - - - - -
10/09:00pm 14.7 WSW 11 19 1020.9 - 0.2 - Cloudy - - - - -
10/08:30pm 14.7 SW 14 23 1021.0 - 0.2 - Partly cloudy - - - - -
10/08:05pm 14.0 WSW 13 25 1020.8 - 0.2 - Partly cloudy - - - - -
10/08:00pm 14.4 W 12 23 1020.8 - 0.2 - Partly cloudy - - - - -
10/07:30pm 15.1 WSW 12 21 1020.7 - 0.2 - Partly cloudy - - - - -
10/07:00pm 15.2 WSW 11 21 1020.5 - 0.2 - Cloudy - - - - -
10/06:45pm 15.3 SW 15 26 1020.4 - 0.2 - Cloudy - - - - -
10/06:30pm 15.5 WSW 15 24 1020.2 - 0.2 - Cloudy - - - - -
10/06:00pm 15.8 W 11 21 1020.2 - 0.2 - Cloudy - - - - -
10/05:30pm 15.8 WSW 10 18 1020.3 - 0.2 - Cloudy - - - - -
10/05:00pm 15.7 WSW 12 22 1020.3 - 0.2 - Partly cloudy - - - - -
10/04:55pm 16.0 W 13 22 1020.4 - 0.2 - Partly cloudy - - - - -
10/04:30pm 16.0 WSW 13 22 1020.5 - 0.2 - Partly cloudy - - - - -
10/04:00pm 15.8 W 12 22 1020.5 - 0.2 - Partly cloudy - - - - -
10/03:58pm 15.9 WSW 12 21 1020.5 - 0.2 - Partly cloudy - - - - -
10/03:34pm 15.4 W 15 22 1020.6 - 0.2 - Partly cloudy - - - - -
10/03:31pm 15.4 W 15 22 1020.6 - 0.2 - Partly cloudy - - - - -
10/03:30pm 15.4 W 14 22 1020.6 - 0.2 - Partly cloudy - - - - -
10/03:00pm 16.4 W 13 20 1020.5 - 0.2 - Cloudy - - - - -
10/02:57pm 16.7 W 13 21 1020.6 - 0.2 - Partly cloudy - - - - -
10/02:54pm 16.3 W 14 21 1020.6 - 0.2 - Partly cloudy - - - - -
10/02:30pm 16.4 W 12 20 1020.7 - 0.2 - Partly cloudy - - - - -
10/02:19pm 16.3 W 12 19 1020.8 - 0.2 - Partly cloudy - - - - -
10/02:14pm 16.0 W 12 19 1020.8 - 0.2 - Partly cloudy - - - - -
10/02:00pm 15.2 WSW 11 18 1020.9 - 0.2 - Partly cloudy - - - - -
10/01:30pm 15.4 WSW 10 17 1021.0 - 0.2 - Partly cloudy - - - - -
10/01:00pm 16.2 W 12 21 1021.0 - 0.2 - Partly cloudy - - - - -
10/12:30pm 16.8 W 12 19 1021.0 - 0.2 - Partly cloudy - - - - -
10/12:00pm 15.1 WSW 13 22 1021.0 - 0.0 - Cloudy - - - - -
10/11:32am 16.3 W 13 19 1020.9 - 0.0 - Partly cloudy - - - - -
10/11:30am 16.2 W 13 17 1020.8 - 0.0 - Partly cloudy - - - - -
10/11:25am 16.5 W 13 18 1020.9 - 0.0 - Partly cloudy - - - - -
10/11:08am 16.1 W 12 17 1020.9 - 0.0 - Partly cloudy - - - - -
10/11:00am 16.0 W 12 19 1020.9 - 0.0 - Partly cloudy - - - - -
10/10:54am 16.0 W 12 18 1020.9 - 0.0 - Partly cloudy - - - - -
10/10:30am 15.0 WSW 12 19 1020.9 - 0.0 - Partly cloudy - - - - -
10/10:00am 14.4 W 11 18 1020.9 - 0.0 - Partly cloudy - - - - -
10/09:30am 15.0 SW 11 18 1020.9 - 0.0 - Partly cloudy - - - - -
10/09:14am 14.6 W 11 16 1020.8 - 0.0 - Partly cloudy - - - - -
10/09:07am 14.6 W 10 15 1020.8 - 0.0 - Partly cloudy - - - - -
10/09:00am 14.4 W 10 18 1020.8 - 0.4 - Cloudy - - - - -
10/08:56am 14.1 WSW 11 18 1020.8 - 0.4 - Partly cloudy - - - - -
10/08:30am 14.1 W 14 22 1020.6 - 0.4 - Partly cloudy - - - - -
10/08:00am 14.5 WSW 11 19 1020.3 - 0.4 - Partly cloudy - - - - -
10/07:51am 14.8 WSW 11 21 1020.2 - 0.4 - Partly cloudy - - - - -
10/07:30am 14.2 WSW 13 21 1020.0 - 0.4 - Partly cloudy - - - - -
10/07:20am 14.5 W 14 19 1019.9 - 0.4 - Partly cloudy - - - - -
10/07:00am 14.4 W 11 17 1019.8 - 0.4 - Partly cloudy - - - - -
10/06:58am 14.3 W 11 17 1019.8 - 0.4 - Partly cloudy - - - - -
10/06:30am 13.9 W 13 22 1019.8 - 0.4 - Partly cloudy - - - - -
10/06:08am 14.0 WSW 11 21 1019.7 - 0.2 - Partly cloudy - - - - -
10/06:00am 14.2 WSW 13 23 1019.6 - 0.2 - Cloudy - - - - -
10/05:30am 14.1 W 14 22 1019.4 - 0.2 - Partly cloudy - - - - -
10/05:00am 14.4 W 14 23 1019.4 - 0.2 - Partly cloudy - - - - -
10/04:30am 14.4 W 13 22 1019.3 - 0.2 - Partly cloudy - - - - -
10/04:24am 14.6 W 13 19 1019.2 - 0.2 - Partly cloudy - - - - -
10/04:00am 14.0 W 14 20 1019.2 - 0.2 - Partly cloudy - - - - -
10/03:55am 13.9 W 14 19 1019.2 - 0.2 - Partly cloudy - - - - -
10/03:30am 15.0 W 13 20 1019.0 - 0.0 - Cloudy - - - - -
10/03:00am 15.2 W 13 21 1019.0 - 0.0 - Cloudy - - - - -
10/02:30am 14.9 W 13 21 1019.1 - 0.0 - Cloudy - - - - -
10/02:00am 14.6 W 13 18 1019.3 - 0.0 - Cloudy - - - - -
10/01:30am 14.3 W 14 21 1019.4 - 0.0 - Partly cloudy - - - - -
10/01:00am 14.9 W 14 19 1019.5 - 0.0 - Partly cloudy - - - - -
10/12:30am 14.8 W 14 19 1019.5 - 0.0 - Partly cloudy - - - - -
10/12:00am 14.6 W 13 18 1019.7 - 0.0 - Partly cloudy - - - - -
 
Date/Time
EDT
Temp
°C
Wind Pressure Rain since
9am
mm
Weather Cloud Vis
km
Sea
Height
m
Swell
Dir  Spd
kts
Gust
kts
hPa Trend Height
m
Period
s
Dir
09/11:30pm 15.0 W 12 19 1019.8 - 0.0 - Partly cloudy - - - - -
09/11:00pm 14.9 W 11 15 1019.8 - 0.0 - Partly cloudy - - - - -
09/10:50pm 14.6 WSW 10 15 1019.8 - 0.0 - Partly cloudy - - - - -
09/10:35pm 14.6 WSW 13 21 1019.9 - 0.0 - Partly cloudy - - - - -
09/10:30pm 15.0 W 13 19 1019.9 - 0.0 - Partly cloudy - - - - -
09/10:00pm 14.9 W 13 21 1019.8 - 0.0 - Partly cloudy - - - - -
09/09:30pm 14.8 W 14 22 1019.5 - 0.0 - Partly cloudy - - - - -
09/09:00pm 15.0 W 13 21 1019.3 - 0.0 - Mostly cloudy - - - - -
09/08:30pm 15.0 W 14 19 1019.0 - 0.0 - Partly cloudy - - - - -
09/08:00pm 15.0 W 14 20 1018.9 - 0.0 - Partly cloudy - - - - -

Other Formats:

Comma delimited format used in spreadsheet applications
http://www.bom.gov.au/fwo/IDV60701/IDV60701.95954.axf

JavaScript Object Notation format (JSON) in row-major order
http://www.bom.gov.au/fwo/IDV60701/IDV60701.95954.json